Salina, Kansas
Current Conditions -  °F | °C
As of 7:53 PM on Saturday 20 Dec 2014 (Local Time) from KSLN Reporting Station
Clear Clear  
Wind Chill:   Ceiling: Unl
Heat Index:   Visibility: 10mi
Dew Point:   Wind: 7mph
Humidity: 83%   Direction: 180°S
Pressure: 30.07"   Gusts: NA
Location:  38.84°N, 97.61°W
Report Text: KSLN 210153Z 18006KT 10SM CLR 04/02 A3007 RMK AO2 SLP190 T00440017
Loading
Personal Weather Stations






























Interactive Weather Map New forecast layout! Learn more

10-Day Weather Forecast

Advertisements
Track Severe Weather on mobile